sensor_id;sensor_type;location;lat;lon;timestamp;P1;durP1;ratioP1;P2;durP2;ratioP2
12689;SDS011;6409;56.294;14.480;2022-08-18T00:01:48;8.43;;;6.23;;
12689;SDS011;6409;56.294;14.480;2022-08-18T00:04:19;8.90;;;6.40;;
12689;SDS011;6409;56.294;14.480;2022-08-18T00:06:46;8.63;;;6.27;;
12689;SDS011;6409;56.294;14.480;2022-08-18T00:09:12;9.83;;;6.80;;
12689;SDS011;6409;56.294;14.480;2022-08-18T00:11:40;9.03;;;6.30;;
12689;SDS011;6409;56.294;14.480;2022-08-18T00:14:10;9.90;;;6.53;;
12689;SDS011;6409;56.294;14.480;2022-08-18T00:16:40;9.03;;;5.97;;
12689;SDS011;6409;56.294;14.480;2022-08-18T00:19:07;6.93;;;5.17;;
12689;SDS011;6409;56.294;14.480;2022-08-18T00:21:34;7.30;;;6.10;;
12689;SDS011;6409;56.294;14.480;2022-08-18T00:24:01;8.23;;;6.37;;
12689;SDS011;6409;56.294;14.480;2022-08-18T00:26:29;10.47;;;6.43;;
12689;SDS011;6409;56.294;14.480;2022-08-18T00:28:55;6.93;;;5.43;;
12689;SDS011;6409;56.294;14.480;2022-08-18T00:31:22;8.37;;;6.43;;
12689;SDS011;6409;56.294;14.480;2022-08-18T00:33:51;7.67;;;6.13;;
12689;SDS011;6409;56.294;14.480;2022-08-18T00:36:18;7.17;;;5.73;;
12689;SDS011;6409;56.294;14.480;2022-08-18T00:38:45;8.83;;;6.00;;
12689;SDS011;6409;56.294;14.480;2022-08-18T00:41:12;8.80;;;5.83;;
12689;SDS011;6409;56.294;14.480;2022-08-18T00:43:40;7.90;;;5.97;;
12689;SDS011;6409;56.294;14.480;2022-08-18T00:48:37;8.70;;;5.80;;
12689;SDS011;6409;56.294;14.480;2022-08-18T00:51:07;7.50;;;6.40;;
12689;SDS011;6409;56.294;14.480;2022-08-18T00:53:38;13.67;;;6.50;;
12689;SDS011;6409;56.294;14.480;2022-08-18T00:56:11;7.63;;;6.30;;
12689;SDS011;6409;56.294;14.480;2022-08-18T00:58:41;8.53;;;6.03;;
12689;SDS011;6409;56.294;14.480;2022-08-18T01:01:10;8.40;;;6.30;;
12689;SDS011;6409;56.294;14.480;2022-08-18T01:03:38;8.13;;;5.67;;
12689;SDS011;6409;56.294;14.480;2022-08-18T01:06:08;9.47;;;7.23;;
12689;SDS011;6409;56.294;14.480;2022-08-18T01:08:39;10.47;;;6.57;;
12689;SDS011;6409;56.294;14.480;2022-08-18T01:11:05;8.93;;;6.93;;
12689;SDS011;6409;56.294;14.480;2022-08-18T01:13:34;10.13;;;7.00;;
12689;SDS011;6409;56.294;14.480;2022-08-18T01:16:03;7.57;;;5.70;;
12689;SDS011;6409;56.294;14.480;2022-08-18T01:18:50;8.03;;;5.97;;
12689;SDS011;6409;56.294;14.480;2022-08-18T01:21:37;6.63;;;5.67;;
12689;SDS011;6409;56.294;14.480;2022-08-18T01:24:19;7.60;;;5.83;;
12689;SDS011;6409;56.294;14.480;2022-08-18T01:27:10;6.70;;;5.60;;
12689;SDS011;6409;56.294;14.480;2022-08-18T01:29:42;8.43;;;5.73;;
12689;SDS011;6409;56.294;14.480;2022-08-18T01:32:10;8.07;;;5.20;;
12689;SDS011;6409;56.294;14.480;2022-08-18T01:34:37;8.30;;;6.13;;
12689;SDS011;6409;56.294;14.480;2022-08-18T01:37:04;7.23;;;5.53;;
12689;SDS011;6409;56.294;14.480;2022-08-18T01:39:33;8.50;;;6.10;;
12689;SDS011;6409;56.294;14.480;2022-08-18T01:41:59;10.67;;;6.63;;
12689;SDS011;6409;56.294;14.480;2022-08-18T01:44:28;8.10;;;5.80;;
12689;SDS011;6409;56.294;14.480;2022-08-18T01:46:55;8.47;;;6.07;;
12689;SDS011;6409;56.294;14.480;2022-08-18T01:49:22;12.93;;;6.27;;
12689;SDS011;6409;56.294;14.480;2022-08-18T01:51:49;8.73;;;6.20;;
12689;SDS011;6409;56.294;14.480;2022-08-18T01:54:16;8.27;;;6.17;;
12689;SDS011;6409;56.294;14.480;2022-08-18T01:56:44;10.83;;;6.90;;
12689;SDS011;6409;56.294;14.480;2022-08-18T01:59:12;10.07;;;7.23;;
12689;SDS011;6409;56.294;14.480;2022-08-18T02:01:39;9.83;;;6.57;;
12689;SDS011;6409;56.294;14.480;2022-08-18T02:04:08;8.07;;;5.80;;
12689;SDS011;6409;56.294;14.480;2022-08-18T02:06:36;7.87;;;5.83;;
12689;SDS011;6409;56.294;14.480;2022-08-18T02:09:03;8.37;;;6.17;;
12689;SDS011;6409;56.294;14.480;2022-08-18T02:11:30;8.23;;;6.03;;
12689;SDS011;6409;56.294;14.480;2022-08-18T02:13:58;8.33;;;5.70;;
12689;SDS011;6409;56.294;14.480;2022-08-18T02:16:25;7.27;;;5.13;;
12689;SDS011;6409;56.294;14.480;2022-08-18T02:18:53;10.70;;;6.63;;
12689;SDS011;6409;56.294;14.480;2022-08-18T02:21:20;10.00;;;6.60;;
12689;SDS011;6409;56.294;14.480;2022-08-18T02:23:47;8.13;;;5.93;;
12689;SDS011;6409;56.294;14.480;2022-08-18T02:26:15;7.03;;;5.53;;
12689;SDS011;6409;56.294;14.480;2022-08-18T02:28:43;8.47;;;5.30;;
12689;SDS011;6409;56.294;14.480;2022-08-18T02:31:14;7.93;;;5.47;;
12689;SDS011;6409;56.294;14.480;2022-08-18T02:33:42;7.97;;;5.90;;
12689;SDS011;6409;56.294;14.480;2022-08-18T02:36:09;7.43;;;5.73;;
12689;SDS011;6409;56.294;14.480;2022-08-18T02:38:37;9.80;;;6.27;;
12689;SDS011;6409;56.294;14.480;2022-08-18T02:41:05;7.30;;;5.40;;
12689;SDS011;6409;56.294;14.480;2022-08-18T02:43:33;8.03;;;5.73;;
12689;SDS011;6409;56.294;14.480;2022-08-18T02:46:01;7.87;;;5.70;;
12689;SDS011;6409;56.294;14.480;2022-08-18T02:48:29;8.43;;;6.00;;
12689;SDS011;6409;56.294;14.480;2022-08-18T02:50:59;7.87;;;6.07;;
12689;SDS011;6409;56.294;14.480;2022-08-18T02:53:27;8.90;;;5.60;;
12689;SDS011;6409;56.294;14.480;2022-08-18T02:55:54;6.37;;;5.17;;
12689;SDS011;6409;56.294;14.480;2022-08-18T02:58:21;9.27;;;6.10;;
12689;SDS011;6409;56.294;14.480;2022-08-18T03:00:48;8.30;;;5.73;;
12689;SDS011;6409;56.294;14.480;2022-08-18T03:03:15;8.70;;;6.70;;
12689;SDS011;6409;56.294;14.480;2022-08-18T03:05:43;7.73;;;6.00;;
12689;SDS011;6409;56.294;14.480;2022-08-18T03:08:11;7.53;;;5.80;;
12689;SDS011;6409;56.294;14.480;2022-08-18T03:10:38;8.63;;;5.80;;
12689;SDS011;6409;56.294;14.480;2022-08-18T03:13:05;6.93;;;5.50;;
12689;SDS011;6409;56.294;14.480;2022-08-18T03:15:32;7.03;;;5.40;;
12689;SDS011;6409;56.294;14.480;2022-08-18T03:17:58;8.80;;;6.30;;
12689;SDS011;6409;56.294;14.480;2022-08-18T03:20:26;8.03;;;5.83;;
12689;SDS011;6409;56.294;14.480;2022-08-18T03:22:54;9.63;;;5.87;;
12689;SDS011;6409;56.294;14.480;2022-08-18T03:25:21;7.83;;;5.87;;
12689;SDS011;6409;56.294;14.480;2022-08-18T03:27:48;10.43;;;6.20;;
12689;SDS011;6409;56.294;14.480;2022-08-18T03:30:15;8.67;;;6.60;;
12689;SDS011;6409;56.294;14.480;2022-08-18T03:32:42;8.43;;;5.43;;
12689;SDS011;6409;56.294;14.480;2022-08-18T03:35:09;6.77;;;5.47;;
12689;SDS011;6409;56.294;14.480;2022-08-18T03:37:38;7.00;;;5.60;;
12689;SDS011;6409;56.294;14.480;2022-08-18T03:40:07;8.57;;;6.03;;
12689;SDS011;6409;56.294;14.480;2022-08-18T03:42:35;9.20;;;5.40;;
12689;SDS011;6409;56.294;14.480;2022-08-18T03:45:03;8.07;;;6.00;;
12689;SDS011;6409;56.294;14.480;2022-08-18T03:47:31;7.10;;;5.77;;
12689;SDS011;6409;56.294;14.480;2022-08-18T03:49:58;8.60;;;6.30;;
12689;SDS011;6409;56.294;14.480;2022-08-18T03:52:25;12.57;;;6.70;;
12689;SDS011;6409;56.294;14.480;2022-08-18T03:54:52;8.03;;;5.30;;
12689;SDS011;6409;56.294;14.480;2022-08-18T03:57:20;8.77;;;6.10;;
12689;SDS011;6409;56.294;14.480;2022-08-18T03:59:47;7.90;;;5.67;;
12689;SDS011;6409;56.294;14.480;2022-08-18T04:02:14;11.63;;;5.67;;
12689;SDS011;6409;56.294;14.480;2022-08-18T04:04:40;8.17;;;5.70;;
12689;SDS011;6409;56.294;14.480;2022-08-18T04:07:09;7.37;;;5.73;;
12689;SDS011;6409;56.294;14.480;2022-08-18T04:09:38;7.17;;;6.00;;
12689;SDS011;6409;56.294;14.480;2022-08-18T04:12:07;7.63;;;5.73;;
12689;SDS011;6409;56.294;14.480;2022-08-18T04:14:39;7.57;;;5.27;;
12689;SDS011;6409;56.294;14.480;2022-08-18T04:17:07;7.70;;;5.73;;
12689;SDS011;6409;56.294;14.480;2022-08-18T04:19:34;8.17;;;6.00;;
12689;SDS011;6409;56.294;14.480;2022-08-18T04:22:02;8.37;;;6.10;;
12689;SDS011;6409;56.294;14.480;2022-08-18T04:24:30;7.17;;;5.93;;
12689;SDS011;6409;56.294;14.480;2022-08-18T04:26:59;14.63;;;6.13;;
12689;SDS011;6409;56.294;14.480;2022-08-18T04:29:26;8.70;;;6.30;;
12689;SDS011;6409;56.294;14.480;2022-08-18T04:31:55;8.03;;;5.90;;
12689;SDS011;6409;56.294;14.480;2022-08-18T04:34:25;7.37;;;5.70;;
12689;SDS011;6409;56.294;14.480;2022-08-18T04:36:52;7.87;;;5.67;;
12689;SDS011;6409;56.294;14.480;2022-08-18T04:39:19;7.67;;;5.67;;
12689;SDS011;6409;56.294;14.480;2022-08-18T04:41:46;8.80;;;6.10;;
12689;SDS011;6409;56.294;14.480;2022-08-18T04:44:13;8.50;;;6.50;;
12689;SDS011;6409;56.294;14.480;2022-08-18T04:46:43;8.00;;;5.53;;
12689;SDS011;6409;56.294;14.480;2022-08-18T04:49:13;7.80;;;5.83;;
12689;SDS011;6409;56.294;14.480;2022-08-18T04:51:41;9.50;;;6.40;;
12689;SDS011;6409;56.294;14.480;2022-08-18T04:54:30;7.03;;;5.50;;
12689;SDS011;6409;56.294;14.480;2022-08-18T04:56:56;8.23;;;5.90;;
12689;SDS011;6409;56.294;14.480;2022-08-18T04:59:23;8.60;;;5.80;;
12689;SDS011;6409;56.294;14.480;2022-08-18T05:01:50;7.63;;;5.73;;
12689;SDS011;6409;56.294;14.480;2022-08-18T05:04:18;6.83;;;5.77;;
12689;SDS011;6409;56.294;14.480;2022-08-18T05:06:45;8.17;;;6.07;;
12689;SDS011;6409;56.294;14.480;2022-08-18T05:09:13;9.97;;;6.67;;
12689;SDS011;6409;56.294;14.480;2022-08-18T05:11:40;9.43;;;6.70;;
12689;SDS011;6409;56.294;14.480;2022-08-18T05:14:09;19.13;;;8.70;;
12689;SDS011;6409;56.294;14.480;2022-08-18T05:16:36;18.60;;;9.33;;
12689;SDS011;6409;56.294;14.480;2022-08-18T05:19:04;16.60;;;9.70;;
12689;SDS011;6409;56.294;14.480;2022-08-18T05:21:34;15.73;;;8.53;;
12689;SDS011;6409;56.294;14.480;2022-08-18T05:24:02;30.80;;;11.80;;
12689;SDS011;6409;56.294;14.480;2022-08-18T05:26:30;24.77;;;11.27;;
12689;SDS011;6409;56.294;14.480;2022-08-18T05:28:57;35.43;;;13.83;;
12689;SDS011;6409;56.294;14.480;2022-08-18T05:31:24;32.83;;;13.23;;
12689;SDS011;6409;56.294;14.480;2022-08-18T05:33:52;72.93;;;13.73;;
12689;SDS011;6409;56.294;14.480;2022-08-18T05:36:25;44.83;;;13.33;;
12689;SDS011;6409;56.294;14.480;2022-08-18T05:39:02;39.57;;;11.83;;
12689;SDS011;6409;56.294;14.480;2022-08-18T05:41:34;47.03;;;13.73;;
12689;SDS011;6409;56.294;14.480;2022-08-18T05:44:03;46.57;;;12.47;;
12689;SDS011;6409;56.294;14.480;2022-08-18T05:46:33;47.83;;;13.43;;
12689;SDS011;6409;56.294;14.480;2022-08-18T05:49:04;60.10;;;13.87;;
12689;SDS011;6409;56.294;14.480;2022-08-18T05:51:32;51.03;;;11.63;;
12689;SDS011;6409;56.294;14.480;2022-08-18T05:54:03;34.57;;;10.77;;
12689;SDS011;6409;56.294;14.480;2022-08-18T05:56:47;22.27;;;10.63;;
12689;SDS011;6409;56.294;14.480;2022-08-18T05:59:20;21.93;;;9.67;;
12689;SDS011;6409;56.294;14.480;2022-08-18T06:01:50;27.80;;;11.30;;
12689;SDS011;6409;56.294;14.480;2022-08-18T06:04:24;27.30;;;9.83;;
12689;SDS011;6409;56.294;14.480;2022-08-18T06:06:55;22.63;;;10.40;;
12689;SDS011;6409;56.294;14.480;2022-08-18T06:09:25;28.97;;;10.00;;
12689;SDS011;6409;56.294;14.480;2022-08-18T06:12:02;31.47;;;9.23;;
12689;SDS011;6409;56.294;14.480;2022-08-18T06:14:35;23.10;;;9.03;;
12689;SDS011;6409;56.294;14.480;2022-08-18T06:17:05;20.03;;;9.17;;
12689;SDS011;6409;56.294;14.480;2022-08-18T06:19:40;18.57;;;8.23;;
12689;SDS011;6409;56.294;14.480;2022-08-18T06:22:12;19.53;;;8.90;;
12689;SDS011;6409;56.294;14.480;2022-08-18T06:24:49;13.50;;;7.73;;
12689;SDS011;6409;56.294;14.480;2022-08-18T06:27:25;15.93;;;8.57;;
12689;SDS011;6409;56.294;14.480;2022-08-18T06:30:02;13.27;;;7.80;;
12689;SDS011;6409;56.294;14.480;2022-08-18T06:32:38;14.43;;;8.40;;
12689;SDS011;6409;56.294;14.480;2022-08-18T06:35:17;12.93;;;8.00;;
12689;SDS011;6409;56.294;14.480;2022-08-18T06:37:53;16.73;;;9.10;;
12689;SDS011;6409;56.294;14.480;2022-08-18T06:40:40;15.03;;;8.27;;
12689;SDS011;6409;56.294;14.480;2022-08-18T06:43:08;20.83;;;8.03;;
12689;SDS011;6409;56.294;14.480;2022-08-18T06:45:39;14.80;;;9.27;;
12689;SDS011;6409;56.294;14.480;2022-08-18T06:48:10;10.73;;;6.97;;
12689;SDS011;6409;56.294;14.480;2022-08-18T06:50:40;12.93;;;5.83;;
12689;SDS011;6409;56.294;14.480;2022-08-18T06:53:13;7.03;;;5.43;;
12689;SDS011;6409;56.294;14.480;2022-08-18T06:55:42;8.85;;;5.75;;
12689;SDS011;6409;56.294;14.480;2022-08-18T06:58:19;9.52;;;5.25;;
12689;SDS011;6409;56.294;14.480;2022-08-18T07:00:53;9.68;;;6.57;;
12689;SDS011;6409;56.294;14.480;2022-08-18T07:03:22;12.05;;;7.20;;
12689;SDS011;6409;56.294;14.480;2022-08-18T07:06:03;12.43;;;6.88;;
12689;SDS011;6409;56.294;14.480;2022-08-18T07:08:32;13.23;;;7.15;;
12689;SDS011;6409;56.294;14.480;2022-08-18T07:11:11;13.45;;;7.50;;
12689;SDS011;6409;56.294;14.480;2022-08-18T07:13:39;10.73;;;7.22;;
12689;SDS011;6409;56.294;14.480;2022-08-18T07:16:21;11.52;;;7.15;;
12689;SDS011;6409;56.294;14.480;2022-08-18T07:18:49;11.10;;;6.97;;
12689;SDS011;6409;56.294;14.480;2022-08-18T07:21:23;10.70;;;6.97;;
12689;SDS011;6409;56.294;14.480;2022-08-18T07:24:03;8.65;;;6.38;;
12689;SDS011;6409;56.294;14.480;2022-08-18T07:26:34;9.88;;;6.20;;
12689;SDS011;6409;56.294;14.480;2022-08-18T07:29:26;8.50;;;6.25;;
12689;SDS011;6409;56.294;14.480;2022-08-18T07:31:54;8.68;;;6.13;;
12689;SDS011;6409;56.294;14.480;2022-08-18T07:34:24;7.60;;;5.40;;
12689;SDS011;6409;56.294;14.480;2022-08-18T07:36:57;8.68;;;5.78;;
12689;SDS011;6409;56.294;14.480;2022-08-18T07:39:29;7.43;;;5.68;;
12689;SDS011;6409;56.294;14.480;2022-08-18T07:42:03;6.80;;;5.07;;
12689;SDS011;6409;56.294;14.480;2022-08-18T07:44:38;9.07;;;5.05;;
12689;SDS011;6409;56.294;14.480;2022-08-18T07:47:11;6.63;;;4.50;;
12689;SDS011;6409;56.294;14.480;2022-08-18T07:49:40;10.45;;;5.05;;
12689;SDS011;6409;56.294;14.480;2022-08-18T07:52:11;4.72;;;4.03;;
12689;SDS011;6409;56.294;14.480;2022-08-18T07:54:44;5.72;;;4.68;;
12689;SDS011;6409;56.294;14.480;2022-08-18T07:57:19;5.00;;;4.30;;
12689;SDS011;6409;56.294;14.480;2022-08-18T07:59:56;4.97;;;4.47;;
12689;SDS011;6409;56.294;14.480;2022-08-18T08:02:32;4.72;;;4.32;;
12689;SDS011;6409;56.294;14.480;2022-08-18T08:05:06;5.82;;;5.03;;
12689;SDS011;6409;56.294;14.480;2022-08-18T08:07:39;5.88;;;4.63;;
12689;SDS011;6409;56.294;14.480;2022-08-18T08:12:57;5.65;;;4.53;;
12689;SDS011;6409;56.294;14.480;2022-08-18T08:15:34;5.93;;;4.80;;
12689;SDS011;6409;56.294;14.480;2022-08-18T08:18:09;6.07;;;4.45;;
12689;SDS011;6409;56.294;14.480;2022-08-18T08:20:39;6.13;;;4.40;;
12689;SDS011;6409;56.294;14.480;2022-08-18T08:23:13;5.07;;;4.50;;
12689;SDS011;6409;56.294;14.480;2022-08-18T08:25:47;5.18;;;4.40;;
12689;SDS011;6409;56.294;14.480;2022-08-18T08:28:23;5.95;;;5.18;;
12689;SDS011;6409;56.294;14.480;2022-08-18T08:31:00;6.15;;;4.65;;
12689;SDS011;6409;56.294;14.480;2022-08-18T08:33:32;5.57;;;4.55;;
12689;SDS011;6409;56.294;14.480;2022-08-18T08:36:05;5.35;;;4.85;;
12689;SDS011;6409;56.294;14.480;2022-08-18T08:38:37;6.30;;;4.70;;
12689;SDS011;6409;56.294;14.480;2022-08-18T08:41:09;5.03;;;4.50;;
12689;SDS011;6409;56.294;14.480;2022-08-18T08:43:40;5.13;;;4.30;;
12689;SDS011;6409;56.294;14.480;2022-08-18T08:46:11;5.10;;;4.28;;
12689;SDS011;6409;56.294;14.480;2022-08-18T08:48:42;6.25;;;4.85;;
12689;SDS011;6409;56.294;14.480;2022-08-18T08:51:22;5.53;;;4.50;;
12689;SDS011;6409;56.294;14.480;2022-08-18T08:53:54;6.75;;;4.53;;
12689;SDS011;6409;56.294;14.480;2022-08-18T08:56:27;5.20;;;4.60;;
12689;SDS011;6409;56.294;14.480;2022-08-18T08:58:57;8.32;;;4.28;;
12689;SDS011;6409;56.294;14.480;2022-08-18T09:01:26;6.05;;;4.70;;
12689;SDS011;6409;56.294;14.480;2022-08-18T09:03:58;5.40;;;4.50;;
12689;SDS011;6409;56.294;14.480;2022-08-18T09:06:31;6.18;;;4.57;;
12689;SDS011;6409;56.294;14.480;2022-08-18T09:09:07;4.85;;;4.03;;
12689;SDS011;6409;56.294;14.480;2022-08-18T09:11:45;7.35;;;4.50;;
12689;SDS011;6409;56.294;14.480;2022-08-18T09:17:54;6.00;;;4.50;;
12689;SDS011;6409;56.294;14.480;2022-08-18T09:23:38;5.30;;;4.13;;
12689;SDS011;6409;56.294;14.480;2022-08-18T09:26:21;5.13;;;4.30;;
12689;SDS011;6409;56.294;14.480;2022-08-18T09:28:54;7.15;;;4.57;;
12689;SDS011;6409;56.294;14.480;2022-08-18T09:31:23;5.50;;;4.05;;
12689;SDS011;6409;56.294;14.480;2022-08-18T09:33:54;7.68;;;5.43;;
12689;SDS011;6409;56.294;14.480;2022-08-18T09:36:46;7.32;;;4.57;;
12689;SDS011;6409;56.294;14.480;2022-08-18T09:39:23;5.65;;;4.68;;
12689;SDS011;6409;56.294;14.480;2022-08-18T09:42:11;5.22;;;4.43;;
12689;SDS011;6409;56.294;14.480;2022-08-18T09:45:00;5.25;;;4.28;;
12689;SDS011;6409;56.294;14.480;2022-08-18T09:50:34;5.88;;;4.47;;
12689;SDS011;6409;56.294;14.480;2022-08-18T09:53:19;6.07;;;4.82;;
12689;SDS011;6409;56.294;14.480;2022-08-18T09:56:02;7.00;;;4.53;;
12689;SDS011;6409;56.294;14.480;2022-08-18T10:01:36;6.35;;;4.85;;
12689;SDS011;6409;56.294;14.480;2022-08-18T10:07:20;5.75;;;4.35;;
12689;SDS011;6409;56.294;14.480;2022-08-18T10:12:41;6.25;;;4.97;;
12689;SDS011;6409;56.294;14.480;2022-08-18T10:15:22;6.22;;;4.75;;
12689;SDS011;6409;56.294;14.480;2022-08-18T10:21:10;6.65;;;4.80;;
12689;SDS011;6409;56.294;14.480;2022-08-18T10:23:48;13.23;;;5.68;;
12689;SDS011;6409;56.294;14.480;2022-08-18T10:29:47;6.25;;;5.28;;
12689;SDS011;6409;56.294;14.480;2022-08-18T10:41:25;7.13;;;5.43;;
12689;SDS011;6409;56.294;14.480;2022-08-18T10:43:54;5.78;;;5.18;;
12689;SDS011;6409;56.294;14.480;2022-08-18T10:46:23;11.57;;;6.10;;
12689;SDS011;6409;56.294;14.480;2022-08-18T10:48:58;8.82;;;6.68;;
12689;SDS011;6409;56.294;14.480;2022-08-18T10:51:30;9.88;;;6.65;;
12689;SDS011;6409;56.294;14.480;2022-08-18T10:54:12;9.15;;;6.00;;
12689;SDS011;6409;56.294;14.480;2022-08-18T10:56:45;11.32;;;6.25;;
12689;SDS011;6409;56.294;14.480;2022-08-18T10:59:17;10.48;;;6.72;;
12689;SDS011;6409;56.294;14.480;2022-08-18T11:01:52;6.75;;;5.97;;
12689;SDS011;6409;56.294;14.480;2022-08-18T11:04:30;10.25;;;6.63;;
12689;SDS011;6409;56.294;14.480;2022-08-18T11:07:02;9.32;;;6.57;;
12689;SDS011;6409;56.294;14.480;2022-08-18T11:09:31;10.73;;;6.47;;
12689;SDS011;6409;56.294;14.480;2022-08-18T11:12:01;7.70;;;6.88;;
12689;SDS011;6409;56.294;14.480;2022-08-18T11:14:38;8.70;;;7.10;;
12689;SDS011;6409;56.294;14.480;2022-08-18T11:17:45;9.10;;;6.10;;
12689;SDS011;6409;56.294;14.480;2022-08-18T11:20:26;6.82;;;5.95;;
12689;SDS011;6409;56.294;14.480;2022-08-18T11:22:56;7.43;;;6.05;;
12689;SDS011;6409;56.294;14.480;2022-08-18T11:25:25;7.50;;;5.55;;
12689;SDS011;6409;56.294;14.480;2022-08-18T11:27:54;6.78;;;5.20;;
12689;SDS011;6409;56.294;14.480;2022-08-18T11:30:22;7.95;;;5.80;;
12689;SDS011;6409;56.294;14.480;2022-08-18T11:32:52;9.75;;;5.97;;
12689;SDS011;6409;56.294;14.480;2022-08-18T11:35:20;5.90;;;5.30;;
12689;SDS011;6409;56.294;14.480;2022-08-18T11:37:52;6.18;;;5.57;;
12689;SDS011;6409;56.294;14.480;2022-08-18T11:40:25;6.68;;;5.50;;
12689;SDS011;6409;56.294;14.480;2022-08-18T11:43:04;8.45;;;5.97;;
12689;SDS011;6409;56.294;14.480;2022-08-18T11:45:46;6.05;;;5.35;;
12689;SDS011;6409;56.294;14.480;2022-08-18T11:48:18;6.28;;;5.55;;
12689;SDS011;6409;56.294;14.480;2022-08-18T11:50:48;7.95;;;5.63;;
12689;SDS011;6409;56.294;14.480;2022-08-18T11:53:34;6.25;;;5.65;;
12689;SDS011;6409;56.294;14.480;2022-08-18T11:58:55;6.40;;;5.80;;
12689;SDS011;6409;56.294;14.480;2022-08-18T12:01:35;5.43;;;4.68;;
12689;SDS011;6409;56.294;14.480;2022-08-18T12:04:14;6.82;;;6.15;;
12689;SDS011;6409;56.294;14.480;2022-08-18T12:06:51;10.05;;;5.75;;
12689;SDS011;6409;56.294;14.480;2022-08-18T12:09:25;6.32;;;5.57;;
12689;SDS011;6409;56.294;14.480;2022-08-18T12:11:56;7.35;;;5.45;;
12689;SDS011;6409;56.294;14.480;2022-08-18T12:14:27;6.68;;;5.20;;
12689;SDS011;6409;56.294;14.480;2022-08-18T12:16:55;5.53;;;5.00;;
12689;SDS011;6409;56.294;14.480;2022-08-18T12:19:23;6.20;;;5.60;;
12689;SDS011;6409;56.294;14.480;2022-08-18T12:21:53;5.85;;;5.25;;
12689;SDS011;6409;56.294;14.480;2022-08-18T12:24:21;5.78;;;5.28;;
12689;SDS011;6409;56.294;14.480;2022-08-18T12:26:49;6.47;;;5.80;;
12689;SDS011;6409;56.294;14.480;2022-08-18T12:29:17;5.90;;;5.30;;
12689;SDS011;6409;56.294;14.480;2022-08-18T12:31:46;5.85;;;5.35;;
12689;SDS011;6409;56.294;14.480;2022-08-18T12:34:15;8.02;;;5.25;;
12689;SDS011;6409;56.294;14.480;2022-08-18T12:36:43;5.45;;;4.95;;
12689;SDS011;6409;56.294;14.480;2022-08-18T12:39:10;5.45;;;4.95;;
12689;SDS011;6409;56.294;14.480;2022-08-18T12:41:37;6.55;;;5.18;;
12689;SDS011;6409;56.294;14.480;2022-08-18T12:44:04;29.05;;;5.80;;
12689;SDS011;6409;56.294;14.480;2022-08-18T12:46:31;5.82;;;5.32;;
12689;SDS011;6409;56.294;14.480;2022-08-18T12:49:00;6.82;;;5.43;;
12689;SDS011;6409;56.294;14.480;2022-08-18T12:51:27;14.10;;;5.28;;
12689;SDS011;6409;56.294;14.480;2022-08-18T12:53:54;5.72;;;5.20;;
12689;SDS011;6409;56.294;14.480;2022-08-18T12:56:21;11.10;;;5.35;;
12689;SDS011;6409;56.294;14.480;2022-08-18T12:58:49;5.40;;;4.88;;
12689;SDS011;6409;56.294;14.480;2022-08-18T13:01:16;8.65;;;5.18;;
12689;SDS011;6409;56.294;14.480;2022-08-18T13:03:44;5.78;;;5.22;;
12689;SDS011;6409;56.294;14.480;2022-08-18T13:06:12;5.88;;;5.18;;
12689;SDS011;6409;56.294;14.480;2022-08-18T13:08:39;8.45;;;5.38;;
12689;SDS011;6409;56.294;14.480;2022-08-18T13:11:06;5.28;;;4.78;;
12689;SDS011;6409;56.294;14.480;2022-08-18T13:13:35;5.95;;;5.30;;
12689;SDS011;6409;56.294;14.480;2022-08-18T13:16:02;7.10;;;5.68;;
12689;SDS011;6409;56.294;14.480;2022-08-18T13:18:29;6.22;;;5.32;;
12689;SDS011;6409;56.294;14.480;2022-08-18T13:20:56;5.90;;;5.28;;
12689;SDS011;6409;56.294;14.480;2022-08-18T13:23:25;6.45;;;5.70;;
12689;SDS011;6409;56.294;14.480;2022-08-18T13:25:53;6.70;;;5.18;;
12689;SDS011;6409;56.294;14.480;2022-08-18T13:28:20;5.95;;;5.45;;
12689;SDS011;6409;56.294;14.480;2022-08-18T13:30:47;6.03;;;5.10;;
12689;SDS011;6409;56.294;14.480;2022-08-18T13:33:15;6.53;;;5.50;;
12689;SDS011;6409;56.294;14.480;2022-08-18T13:35:43;5.43;;;4.93;;
12689;SDS011;6409;56.294;14.480;2022-08-18T13:38:10;7.05;;;5.18;;
12689;SDS011;6409;56.294;14.480;2022-08-18T13:40:39;5.65;;;5.05;;
12689;SDS011;6409;56.294;14.480;2022-08-18T13:43:06;4.93;;;4.50;;
12689;SDS011;6409;56.294;14.480;2022-08-18T13:45:33;6.22;;;5.22;;
12689;SDS011;6409;56.294;14.480;2022-08-18T13:48:00;5.47;;;4.60;;
12689;SDS011;6409;56.294;14.480;2022-08-18T13:50:27;6.00;;;5.43;;
12689;SDS011;6409;56.294;14.480;2022-08-18T13:52:55;5.22;;;4.80;;
12689;SDS011;6409;56.294;14.480;2022-08-18T13:55:24;5.63;;;5.07;;
12689;SDS011;6409;56.294;14.480;2022-08-18T13:57:54;5.88;;;5.25;;
12689;SDS011;6409;56.294;14.480;2022-08-18T14:00:21;4.80;;;4.40;;
12689;SDS011;6409;56.294;14.480;2022-08-18T14:02:49;5.20;;;4.70;;
12689;SDS011;6409;56.294;14.480;2022-08-18T14:05:17;5.15;;;4.75;;
12689;SDS011;6409;56.294;14.480;2022-08-18T14:07:45;5.22;;;4.65;;
12689;SDS011;6409;56.294;14.480;2022-08-18T14:10:12;6.22;;;4.63;;
12689;SDS011;6409;56.294;14.480;2022-08-18T14:12:39;5.53;;;4.90;;
12689;SDS011;6409;56.294;14.480;2022-08-18T14:15:09;5.50;;;5.00;;
12689;SDS011;6409;56.294;14.480;2022-08-18T14:17:38;5.50;;;4.93;;
12689;SDS011;6409;56.294;14.480;2022-08-18T14:20:06;5.38;;;4.88;;
12689;SDS011;6409;56.294;14.480;2022-08-18T14:22:52;5.18;;;4.68;;
12689;SDS011;6409;56.294;14.480;2022-08-18T14:25:37;6.72;;;5.25;;
12689;SDS011;6409;56.294;14.480;2022-08-18T14:28:22;6.63;;;5.60;;
12689;SDS011;6409;56.294;14.480;2022-08-18T14:30:50;6.07;;;5.00;;
12689;SDS011;6409;56.294;14.480;2022-08-18T14:33:18;5.57;;;5.07;;
12689;SDS011;6409;56.294;14.480;2022-08-18T14:35:46;6.00;;;5.40;;
12689;SDS011;6409;56.294;14.480;2022-08-18T14:38:13;5.60;;;5.00;;
12689;SDS011;6409;56.294;14.480;2022-08-18T14:40:41;8.55;;;5.85;;
12689;SDS011;6409;56.294;14.480;2022-08-18T14:43:09;7.72;;;5.47;;
12689;SDS011;6409;56.294;14.480;2022-08-18T14:45:36;7.32;;;5.82;;
12689;SDS011;6409;56.294;14.480;2022-08-18T14:48:05;6.50;;;5.60;;
12689;SDS011;6409;56.294;14.480;2022-08-18T14:50:32;6.32;;;5.53;;
12689;SDS011;6409;56.294;14.480;2022-08-18T14:52:59;5.85;;;5.35;;
12689;SDS011;6409;56.294;14.480;2022-08-18T14:55:26;5.68;;;5.18;;
12689;SDS011;6409;56.294;14.480;2022-08-18T14:57:53;6.25;;;5.50;;
12689;SDS011;6409;56.294;14.480;2022-08-18T15:00:20;6.35;;;5.75;;
12689;SDS011;6409;56.294;14.480;2022-08-18T15:02:47;6.25;;;5.38;;
12689;SDS011;6409;56.294;14.480;2022-08-18T15:05:15;6.25;;;5.65;;
12689;SDS011;6409;56.294;14.480;2022-08-18T15:07:43;5.65;;;4.82;;
12689;SDS011;6409;56.294;14.480;2022-08-18T15:10:10;5.78;;;5.18;;
12689;SDS011;6409;56.294;14.480;2022-08-18T15:12:38;5.50;;;4.95;;
12689;SDS011;6409;56.294;14.480;2022-08-18T15:15:06;5.40;;;4.88;;
12689;SDS011;6409;56.294;14.480;2022-08-18T15:17:34;6.18;;;5.57;;
12689;SDS011;6409;56.294;14.480;2022-08-18T15:20:02;5.70;;;5.10;;
12689;SDS011;6409;56.294;14.480;2022-08-18T15:22:34;6.10;;;4.88;;
12689;SDS011;6409;56.294;14.480;2022-08-18T15:25:21;8.07;;;5.43;;
12689;SDS011;6409;56.294;14.480;2022-08-18T15:28:05;6.88;;;4.75;;
12689;SDS011;6409;56.294;14.480;2022-08-18T15:30:33;6.15;;;4.97;;
12689;SDS011;6409;56.294;14.480;2022-08-18T15:33:01;6.65;;;4.97;;
12689;SDS011;6409;56.294;14.480;2022-08-18T15:35:29;8.27;;;5.63;;
12689;SDS011;6409;56.294;14.480;2022-08-18T15:37:57;7.18;;;5.45;;
12689;SDS011;6409;56.294;14.480;2022-08-18T15:40:26;6.35;;;5.20;;
12689;SDS011;6409;56.294;14.480;2022-08-18T15:42:57;6.00;;;4.60;;
12689;SDS011;6409;56.294;14.480;2022-08-18T15:45:27;6.38;;;5.65;;
12689;SDS011;6409;56.294;14.480;2022-08-18T15:47:57;7.70;;;5.07;;
12689;SDS011;6409;56.294;14.480;2022-08-18T15:50:24;6.22;;;4.97;;